This is the latest recevied weather packets stored in our database for station/object KC3UTO. If no packets are shown the sender has not sent any weather packets the latest 10 day(s).
| Time | Temp. | Humidity | Pressure | Rain* | Wind** | Luminosity | Snow |
|---|---|---|---|---|---|---|---|
| 1777915320 | 21.67° C | 30% | 1010.6 hPa | 0 mm | - | 925 W/m² | - |
| 1777915017 | 21.11° C | 34% | 1010.8 hPa | 0 mm | - | 910 W/m² | - |
| 1777914714 | 21.67° C | 31% | 1011 hPa | 0 mm | - | 914 W/m² | - |
| 1777914410 | 20.56° C | 32% | 1011.1 hPa | 0 mm | - | 913 W/m² | - |
| 1777914108 | 20.56° C | 32% | 1011.2 hPa | 0 mm | - | 901 W/m² | - |
| 1777913804 | 20.56° C | 31% | 1011 hPa | 0 mm | - | 923 W/m² | - |
| 1777913501 | 20° C | 32% | 1011 hPa | 0 mm | - | 925 W/m² | - |
| 1777913197 | 20.56° C | 32% | 1011.1 hPa | 0 mm | - | 509 W/m² | - |
| 1777912893 | 20.56° C | 33% | 1011 hPa | 0 mm | - | 102 W/m² | - |
| 1777912590 | 20° C | 32% | 1011.2 hPa | 0 mm | - | 100 W/m² | - |
| 1777912286 | 20° C | 31% | 1011.3 hPa | 0 mm | - | 103 W/m² | - |
| 1777911982 | 20° C | 32% | 1011.5 hPa | 0 mm | - | 393 W/m² | - |
| 1777911679 | 19.44° C | 32% | 1011.6 hPa | 0 mm | - | 905 W/m² | - |
| 1777911375 | 19.44° C | 31% | 1011.4 hPa | 0 mm | - | 905 W/m² | - |
| 1777911073 | 19.44° C | 31% | 1011.8 hPa | 0 mm | - | 893 W/m² | - |
| 1777910770 | 19.44° C | 32% | 1011.7 hPa | 0 mm | - | 317 W/m² | - |
| 1777910467 | 19.44° C | 30% | 1011.7 hPa | 0 mm | - | 809 W/m² | - |
| 1777910163 | 20° C | 30% | 1011.7 hPa | 0 mm | - | 884 W/m² | - |
| 1777909861 | 19.44° C | 32% | 1011.9 hPa | 0 mm | - | 882 W/m² | - |
| 1777909557 | 19.44° C | 32% | 1011.9 hPa | 0 mm | - | 890 W/m² | - |
| 1777909254 | 19.44° C | 30% | 1012 hPa | 0 mm | - | 272 W/m² | - |
| 1777908953 | 19.44° C | 31% | 1012.1 hPa | 0 mm | - | 101 W/m² | - |
| 1777908651 | 18.89° C | 33% | 1012.2 hPa | 0 mm | - | 702 W/m² | - |
| 1777908347 | 18.89° C | 32% | 1012.3 hPa | 0 mm | - | 580 W/m² | - |
| 1777908043 | 18.89° C | 30% | 1012.3 hPa | 0 mm | - | 863 W/m² | - |
* Rain latest hour (hover to see other rain measurements)
** Current wind speed in m/s (hover to see current wind gust speed)